Airfield :
LOGIN :

Register | Disclaimer

   EN    FR    IT 

 










Legend :    VFR   Marginal VFR   IFR   Intensive IFR   Very Intensive IFR
Visi :
Ceiling :
>= 8 km
>= 3000ft
5 to 8 km
1000 to 3000 ft
1500m to 5 km
500 to 1000 ft
800 to 1500m
200 to 500 ft
< 800m
< 200 ft
Symbols :   Thunderstorms  Fog  Heavy snow  Heavy precipitations  Wind > 20 kt
SIGMETs :     Misc.  Thunderstorms  Icing  Turbulence  Mountain Waves  Volcanic Ashes






- Airport Elevation : 580 ft


LFOA - Avord

CURRENT METAR :
  • 260230Z AUTO 24006KT 9999 BKN027 BKN032 OVC072 17/15 Q1013 TEMPO BKN010

EXPIRED METARs :
  • 260200Z AUTO 23005KT 9999 BKN029 BKN054 OVC072 17/15 Q1012 TEMPO BKN010
  • 260130Z AUTO 22005KT 9999 ////// 17/16 Q1012
  • 260100Z AUTO 21005KT 9999 BKN027 OVC034 17/16 Q1012 TEMPO BKN010
  • 260030Z AUTO 21004KT 9999 BKN033 OVC039 17/16 Q1012 TEMPO BKN010
  • 260000Z AUTO 20004KT 9999 BKN033 BKN041 17/16 Q1012 NOSIG

TAF TAF LFOA
Valid from the 26 at 03:00 until the 27 at 03:00 UTC


260200Z 2603/2703 24008KT 9999 BKN025 TX22/2614Z TN15/2603Z
TEMPO 2603/2607 BKN010
TEMPO 2609/2620 4000 SHRA BKN025TCU
PROB40 2612/2618 26015G25KT 2000 TSRA BKN025CB



MET'MAP, your aeronautical weather chart ! - Copyright ORBIFLY December 2007 - Disclaimer

ORBIFLY MET'MAP TEAM :

Programming & Development : Alexandra Zaïnal
Concept & original design : Baudouin d'Aumeries
Assistance for programming : Marc-Olivier Méhu
Technical & hardware support : Manuel Goepfert

Contact : metmap@orbifly.com




SOURCES & CREDITS :

   NOAA